Zaoyang, China
Current Conditions -  °F | °C
As of 9:00 AM on Saturday 22 Nov 2014 (Local Time) from ZHHH Reporting Station
Haze Haze  
Wind Chill: 59°   Ceiling: Unl
Heat Index: 59°   Visibility: 1.4mi
Dew Point: 48°   Wind: 7mph
Humidity: 67%   Direction: 100°E
Pressure: 30.15"   Gusts: NA
Location:  32.13°N, 112.75°E
Report Text: ZHHH 220100Z 10003MPS 2300 HZ NSC 15/09 Q1021 NOSIG
Loading
Personal Weather Stations






























Interactive Weather Map New forecast layout! Learn more

10-Day Weather Forecast

Advertisements
Track Severe Weather on mobile